createdAt,value
2018-03-24T00:01:30.620Z,25.17
2018-03-24T00:03:58.122Z,22.33
2018-03-24T00:06:25.645Z,24.13
2018-03-24T00:08:53.146Z,35.93
2018-03-24T00:11:20.671Z,25.60
2018-03-24T00:13:48.194Z,28.97
2018-03-24T00:16:15.701Z,22.20
2018-03-24T00:18:43.217Z,27.80
2018-03-24T00:21:10.827Z,23.00
2018-03-24T00:23:38.355Z,32.27
2018-03-24T00:26:06.336Z,29.50
2018-03-24T00:28:33.873Z,37.83
2018-03-24T00:31:01.383Z,30.57
2018-03-24T00:33:28.881Z,33.70
2018-03-24T00:35:56.403Z,55.33
2018-03-24T00:38:23.902Z,49.87
2018-03-24T00:40:51.403Z,45.47
2018-03-24T00:43:18.907Z,28.00
2018-03-24T00:45:46.416Z,22.00
2018-03-24T00:48:13.922Z,23.10
2018-03-24T00:50:41.501Z,21.03
2018-03-24T00:53:09.417Z,28.23
2018-03-24T00:55:36.930Z,29.77
2018-03-24T00:58:04.519Z,25.87
2018-03-24T01:00:32.084Z,24.90
2018-03-24T01:02:59.606Z,23.60
2018-03-24T01:05:27.151Z,32.60
2018-03-24T01:07:54.651Z,22.30
2018-03-24T01:10:22.156Z,25.47
2018-03-24T01:12:49.685Z,28.97
2018-03-24T01:15:17.410Z,26.07
2018-03-24T01:17:44.920Z,24.43
2018-03-24T01:20:12.445Z,29.67
2018-03-24T01:22:40.051Z,23.30
2018-03-24T01:25:07.630Z,23.73
2018-03-24T01:27:35.138Z,26.10
2018-03-24T01:30:02.784Z,27.20
2018-03-24T01:32:30.276Z,35.50
2018-03-24T01:34:57.774Z,28.93
2018-03-24T01:37:25.286Z,25.47
2018-03-24T01:39:52.812Z,28.37
2018-03-24T01:42:20.329Z,39.23
2018-03-24T01:44:47.841Z,28.93
2018-03-24T01:47:15.370Z,31.67
2018-03-24T01:49:42.885Z,27.47
2018-03-24T01:52:10.395Z,28.83
2018-03-24T01:54:37.929Z,28.17
2018-03-24T01:57:05.430Z,25.67
2018-03-24T01:59:32.936Z,23.30
2018-03-24T02:02:00.894Z,24.43
2018-03-24T02:04:28.404Z,23.43
2018-03-24T02:06:55.935Z,22.20
2018-03-24T02:09:23.463Z,20.57
2018-03-24T02:11:51.022Z,19.93
2018-03-24T02:14:18.528Z,19.53
2018-03-24T02:16:46.033Z,24.30
2018-03-24T02:19:13.537Z,23.87
2018-03-24T02:21:41.967Z,22.07
2018-03-24T02:24:09.806Z,24.63
2018-03-24T02:26:37.540Z,28.13
2018-03-24T02:29:05.047Z,23.17
2018-03-24T02:31:32.557Z,26.20
2018-03-24T02:34:00.113Z,20.70
2018-03-24T02:36:27.615Z,21.47
2018-03-24T02:38:55.114Z,21.40
2018-03-24T02:41:22.644Z,21.75
2018-03-24T02:43:50.206Z,19.17
2018-03-24T02:46:17.731Z,21.47
2018-03-24T02:48:45.238Z,20.87
2018-03-24T02:51:12.757Z,21.57
2018-03-24T02:53:40.274Z,21.77
2018-03-24T02:56:07.819Z,18.70
2018-03-24T02:58:35.368Z,18.93
2018-03-24T03:01:02.888Z,19.77
2018-03-24T03:03:30.477Z,22.77
2018-03-24T03:05:58.084Z,22.40
2018-03-24T03:08:25.593Z,25.92
2018-03-24T03:10:53.132Z,24.70
2018-03-24T03:13:20.655Z,23.90
2018-03-24T03:15:48.186Z,22.45
2018-03-24T03:18:15.698Z,26.20
2018-03-24T03:20:43.246Z,18.30
2018-03-24T03:23:10.771Z,23.45
2018-03-24T03:25:38.356Z,20.70
2018-03-24T03:28:05.998Z,23.30
2018-03-24T03:30:39.119Z,22.67
2018-03-24T03:33:06.712Z,24.00
2018-03-24T03:35:34.222Z,19.27
2018-03-24T03:38:01.798Z,19.12
2018-03-24T03:40:29.329Z,22.87
2018-03-24T03:42:56.890Z,20.10
2018-03-24T03:45:24.398Z,19.92
2018-03-24T03:47:51.900Z,21.73
2018-03-24T03:50:19.420Z,20.88
2018-03-24T03:52:47.007Z,24.60
2018-03-24T03:55:14.588Z,21.83
2018-03-24T03:57:42.104Z,21.00
2018-03-24T04:00:09.626Z,21.12
2018-03-24T04:02:37.139Z,24.85
2018-03-24T04:05:04.699Z,20.90
2018-03-24T04:07:32.201Z,22.83
2018-03-24T04:10:00.259Z,22.85
2018-03-24T04:12:27.768Z,23.25
2018-03-24T04:14:55.289Z,21.25
2018-03-24T04:17:22.810Z,21.17
2018-03-24T04:19:50.370Z,21.30
2018-03-24T04:22:17.879Z,23.60
2018-03-24T04:24:45.419Z,22.37
2018-03-24T04:27:12.989Z,20.95
2018-03-24T04:29:40.709Z,24.00
2018-03-24T04:32:08.510Z,22.50
2018-03-24T04:34:36.028Z,21.95
2018-03-24T04:37:03.572Z,25.02
2018-03-24T04:39:31.073Z,24.37
2018-03-24T04:41:58.727Z,23.38
2018-03-24T04:44:26.241Z,20.20
2018-03-24T04:46:53.752Z,20.52
2018-03-24T04:49:21.265Z,20.37
2018-03-24T04:51:48.773Z,20.15
2018-03-24T04:54:16.272Z,21.85
2018-03-24T04:56:43.790Z,21.65
2018-03-24T04:59:11.306Z,22.85
2018-03-24T05:01:38.834Z,24.65
2018-03-24T05:04:06.357Z,22.65
2018-03-24T05:06:33.919Z,21.02
2018-03-24T05:09:01.450Z,24.58
2018-03-24T05:11:29.057Z,20.83
2018-03-24T05:13:56.634Z,22.13
2018-03-24T05:16:24.157Z,26.60
2018-03-24T05:18:51.669Z,22.67
2018-03-24T05:21:19.169Z,23.87
2018-03-24T05:23:46.674Z,27.35
2018-03-24T05:26:14.199Z,23.85
2018-03-24T05:28:41.850Z,24.10
2018-03-24T05:31:09.912Z,25.10
2018-03-24T05:33:37.429Z,26.45
2018-03-24T05:36:04.946Z,23.65
2018-03-24T05:38:32.493Z,23.48
2018-03-24T05:41:00.024Z,26.23
2018-03-24T05:43:27.521Z,26.08
2018-03-24T05:45:55.591Z,22.70
2018-03-24T05:48:23.094Z,25.10
2018-03-24T05:50:50.689Z,24.20
2018-03-24T05:53:18.205Z,24.50
2018-03-24T05:55:45.725Z,19.80
2018-03-24T05:58:13.252Z,18.92
2018-03-24T06:00:40.858Z,21.90
2018-03-24T06:03:08.430Z,20.15
2018-03-24T06:05:35.946Z,25.88
2018-03-24T06:08:03.477Z,20.15
2018-03-24T06:10:31.057Z,24.37
2018-03-24T06:12:58.564Z,22.30
2018-03-24T06:15:26.089Z,21.10
2018-03-24T06:17:53.642Z,21.02
2018-03-24T06:20:21.148Z,24.37
2018-03-24T06:22:48.683Z,19.10
2018-03-24T06:25:16.183Z,19.45
2018-03-24T06:27:43.709Z,21.60
2018-03-24T06:30:12.267Z,23.17
2018-03-24T06:32:39.850Z,22.50
2018-03-24T06:35:07.354Z,20.67
2018-03-24T06:37:34.867Z,18.60
2018-03-24T06:40:02.408Z,20.88
2018-03-24T06:42:29.921Z,24.23
2018-03-24T06:44:57.499Z,23.23
2018-03-24T06:47:25.057Z,21.67
2018-03-24T06:49:53.377Z,23.15
2018-03-24T06:52:21.133Z,21.87
2018-03-24T06:54:48.645Z,26.80
2018-03-24T06:57:16.161Z,23.25
2018-03-24T06:59:43.686Z,25.85
2018-03-24T07:02:11.198Z,26.73
2018-03-24T07:04:38.789Z,25.25
2018-03-24T07:07:06.322Z,26.83
2018-03-24T07:09:33.874Z,23.98
2018-03-24T07:12:01.385Z,23.98
2018-03-24T07:14:28.906Z,27.35
2018-03-24T07:16:56.441Z,23.58
2018-03-24T07:19:23.941Z,26.08
2018-03-24T07:21:51.510Z,28.62
2018-03-24T07:24:19.019Z,26.95
2018-03-24T07:26:46.767Z,24.17
2018-03-24T07:29:14.414Z,28.20
2018-03-24T07:31:42.017Z,29.08
2018-03-24T07:34:09.540Z,37.33
2018-03-24T07:36:37.077Z,26.03
2018-03-24T07:39:04.656Z,28.00
2018-03-24T07:41:32.190Z,29.87
2018-03-24T07:43:59.698Z,27.23
2018-03-24T07:46:27.216Z,25.57
2018-03-24T07:48:54.754Z,26.93
2018-03-24T07:51:22.392Z,35.17
2018-03-24T07:53:49.958Z,35.60
2018-03-24T07:56:17.544Z,27.97
2018-03-24T07:58:45.065Z,33.40
2018-03-24T08:01:12.619Z,28.87
2018-03-24T08:03:40.266Z,28.23
2018-03-24T08:06:08.007Z,32.23
2018-03-24T08:08:35.530Z,31.93
2018-03-24T08:11:03.134Z,27.70
2018-03-24T08:13:30.660Z,26.73
2018-03-24T08:15:58.487Z,28.87
2018-03-24T08:18:26.141Z,28.53
2018-03-24T08:20:53.794Z,24.40
2018-03-24T08:23:21.449Z,29.37
2018-03-24T08:25:49.526Z,31.30
2018-03-24T08:28:17.043Z,25.27
2018-03-24T08:30:44.557Z,25.90
2018-03-24T08:33:12.160Z,27.63
2018-03-24T08:35:39.673Z,24.30
2018-03-24T08:38:07.198Z,27.37
2018-03-24T08:40:34.713Z,28.83
2018-03-24T08:43:02.236Z,29.50
2018-03-24T08:45:29.745Z,30.73
2018-03-24T08:47:57.259Z,27.37
2018-03-24T08:50:25.099Z,26.60
2018-03-24T08:52:52.899Z,27.53
2018-03-24T08:55:20.403Z,27.70
2018-03-24T08:57:48.206Z,22.80
2018-03-24T09:00:15.774Z,28.63
2018-03-24T09:02:43.450Z,27.07
2018-03-24T09:05:10.991Z,26.97
2018-03-24T09:07:38.504Z,26.77
2018-03-24T09:10:06.014Z,25.50
2018-03-24T09:12:33.690Z,26.37
2018-03-24T09:15:01.261Z,22.33
2018-03-24T09:17:28.777Z,23.83
2018-03-24T09:19:56.280Z,21.17
2018-03-24T09:22:23.789Z,25.30
2018-03-24T09:24:51.302Z,20.37
2018-03-24T09:27:18.807Z,21.80
2018-03-24T09:29:46.746Z,21.57
2018-03-24T09:32:14.267Z,22.83
2018-03-24T09:34:41.842Z,22.57
2018-03-24T09:37:09.374Z,24.33
2018-03-24T09:39:36.888Z,22.57
2018-03-24T09:42:04.398Z,23.23
2018-03-24T09:44:31.961Z,21.87
2018-03-24T09:46:59.487Z,20.97
2018-03-24T09:49:27.017Z,24.93
2018-03-24T09:51:54.518Z,26.37
2018-03-24T09:54:22.057Z,22.73
2018-03-24T09:56:49.557Z,21.83
2018-03-24T09:59:17.111Z,23.00
2018-03-24T10:01:44.657Z,22.20
2018-03-24T10:04:12.185Z,21.70
2018-03-24T10:06:39.743Z,21.77
2018-03-24T10:09:07.231Z,19.83
2018-03-24T10:11:34.753Z,16.57
2018-03-24T10:14:02.266Z,19.77
2018-03-24T10:16:29.777Z,17.90
2018-03-24T10:18:57.289Z,25.23
2018-03-24T10:21:39.635Z,19.40
2018-03-24T10:24:09.068Z,18.50
2018-03-24T10:26:36.644Z,19.80
2018-03-24T10:29:04.166Z,24.63
2018-03-24T10:31:31.705Z,20.30
2018-03-24T10:34:01.503Z,17.67
2018-03-24T10:36:29.029Z,16.90
2018-03-24T10:38:56.538Z,12.90
2018-03-24T10:41:24.054Z,14.37
2018-03-24T10:43:51.854Z,18.93
2018-03-24T10:46:19.457Z,16.57
2018-03-24T10:48:46.953Z,14.43
2018-03-24T10:51:14.770Z,12.67
2018-03-24T10:53:42.413Z,16.90
2018-03-24T10:56:09.926Z,16.37
2018-03-24T10:58:37.444Z,14.57
2018-03-24T11:01:10.598Z,12.63
2018-03-24T11:03:38.105Z,12.50
2018-03-24T11:06:06.276Z,11.43
2018-03-24T11:08:33.813Z,11.73
2018-03-24T11:11:01.383Z,11.60
2018-03-24T11:13:28.924Z,10.10
2018-03-24T11:15:56.433Z,11.30
2018-03-24T11:18:23.953Z,10.10
2018-03-24T11:20:51.460Z,12.33
2018-03-24T11:23:18.963Z,12.30
2018-03-24T11:25:46.494Z,8.67
2018-03-24T11:28:14.029Z,11.63
2018-03-24T11:30:41.532Z,10.13
2018-03-24T11:33:09.046Z,10.47
2018-03-24T11:35:36.664Z,11.37
2018-03-24T11:38:04.237Z,9.47
2018-03-24T11:40:31.749Z,10.03
2018-03-24T11:42:59.264Z,8.00
2018-03-24T11:45:26.751Z,9.97
2018-03-24T11:47:54.264Z,8.90
2018-03-24T11:50:21.789Z,7.73
2018-03-24T11:52:49.285Z,8.53
2018-03-24T11:55:16.870Z,6.80
2018-03-24T11:57:44.362Z,8.83
2018-03-24T12:00:11.918Z,8.47
2018-03-24T12:02:39.429Z,8.60
2018-03-24T12:05:06.954Z,8.87
2018-03-24T12:07:34.556Z,5.70
2018-03-24T12:10:02.109Z,7.07
2018-03-24T12:12:29.626Z,7.73
2018-03-24T12:14:57.160Z,6.93
2018-03-24T12:17:24.687Z,6.60
2018-03-24T12:19:52.198Z,8.87
2018-03-24T12:22:19.688Z,8.50
2018-03-24T12:24:47.184Z,7.03
2018-03-24T12:27:14.676Z,6.80
2018-03-24T12:29:42.171Z,9.57
2018-03-24T12:32:09.660Z,5.33
2018-03-24T12:34:37.154Z,6.50
2018-03-24T12:37:04.663Z,6.97
2018-03-24T12:39:32.257Z,6.07
2018-03-24T12:42:00.232Z,4.93
2018-03-24T12:44:27.754Z,7.77
2018-03-24T12:46:55.247Z,6.20
2018-03-24T12:49:22.753Z,8.53
2018-03-24T12:51:50.249Z,5.73
2018-03-24T12:54:17.748Z,5.90
2018-03-24T12:56:45.250Z,8.57
2018-03-24T12:59:12.760Z,8.53
2018-03-24T13:01:40.273Z,5.73
2018-03-24T13:04:07.906Z,7.47
2018-03-24T13:06:35.436Z,5.30
2018-03-24T13:09:03.047Z,10.87
2018-03-24T13:11:30.550Z,5.70
2018-03-24T13:13:58.568Z,4.97
2018-03-24T13:16:26.092Z,3.90
2018-03-24T13:18:53.599Z,5.10
2018-03-24T13:21:21.089Z,4.00
2018-03-24T13:23:48.593Z,3.90
2018-03-24T13:26:16.091Z,3.63
2018-03-24T13:28:43.583Z,5.60
2018-03-24T13:31:11.071Z,5.10
2018-03-24T13:33:38.578Z,4.13
2018-03-24T13:36:06.167Z,4.43
2018-03-24T13:38:33.658Z,6.20
2018-03-24T13:41:01.231Z,5.27
2018-03-24T13:43:28.710Z,7.87
2018-03-24T13:45:56.233Z,4.27
2018-03-24T13:48:23.772Z,3.80
2018-03-24T13:50:51.273Z,4.03
2018-03-24T13:53:18.785Z,3.80
2018-03-24T13:55:46.270Z,3.57
2018-03-24T13:58:13.750Z,5.93
2018-03-24T14:00:41.243Z,4.07
2018-03-24T14:03:08.758Z,3.93
2018-03-24T14:05:36.242Z,4.40
2018-03-24T14:08:03.738Z,5.83
2018-03-24T14:10:31.255Z,8.73
2018-03-24T14:12:58.737Z,7.17
2018-03-24T14:15:26.261Z,5.27
2018-03-24T14:17:53.792Z,6.83
2018-03-24T14:20:21.268Z,3.93
2018-03-24T14:22:48.783Z,3.50
2018-03-24T14:25:16.267Z,3.57
2018-03-24T14:27:43.755Z,3.47
2018-03-24T14:30:11.257Z,2.93
2018-03-24T14:32:38.788Z,7.47
2018-03-24T14:35:06.634Z,6.30
2018-03-24T14:37:34.118Z,5.50
2018-03-24T14:40:01.629Z,4.13
2018-03-24T14:42:29.191Z,8.97
2018-03-24T14:44:56.666Z,4.10
2018-03-24T14:47:24.158Z,6.07
2018-03-24T14:49:51.731Z,2.60
2018-03-24T14:52:19.230Z,7.73
2018-03-24T14:54:46.723Z,5.70
2018-03-24T14:57:14.205Z,5.00
2018-03-24T14:59:41.695Z,5.90
2018-03-24T15:02:09.188Z,5.00
2018-03-24T15:04:36.697Z,5.00
2018-03-24T15:07:04.218Z,5.10
2018-03-24T15:09:31.718Z,10.90
2018-03-24T15:11:59.209Z,3.97
2018-03-24T15:14:26.694Z,5.43
2018-03-24T15:16:54.172Z,4.53
2018-03-24T15:19:21.680Z,8.73
2018-03-24T15:21:49.650Z,5.50
2018-03-24T15:24:17.169Z,6.33
2018-03-24T15:26:44.665Z,4.67
2018-03-24T15:29:17.969Z,6.33
2018-03-24T15:31:51.277Z,4.20
2018-03-24T15:34:24.633Z,6.43
2018-03-24T15:36:52.119Z,3.37
2018-03-24T15:39:19.605Z,5.17
2018-03-24T15:41:47.118Z,3.57
2018-03-24T15:44:14.643Z,8.13
2018-03-24T15:46:42.144Z,4.70
2018-03-24T15:49:09.701Z,7.80
2018-03-24T15:51:37.170Z,4.33
2018-03-24T15:54:04.743Z,5.63
2018-03-24T15:56:32.280Z,6.10
2018-03-24T15:58:59.754Z,8.93
2018-03-24T16:01:27.229Z,8.10
2018-03-24T16:03:54.727Z,8.80
2018-03-24T16:06:22.245Z,10.27
2018-03-24T16:08:49.722Z,9.93
2018-03-24T16:11:17.202Z,10.47
2018-03-24T16:13:44.697Z,7.53
2018-03-24T16:16:12.198Z,5.93
2018-03-24T16:18:39.686Z,8.33
2018-03-24T16:21:07.208Z,6.20
2018-03-24T16:23:34.681Z,8.30
2018-03-24T16:26:02.797Z,6.33
2018-03-24T16:28:30.276Z,12.40
2018-03-24T16:30:57.766Z,7.37
2018-03-24T16:33:25.245Z,7.50
2018-03-24T16:35:52.787Z,8.77
2018-03-24T16:38:20.260Z,12.40
2018-03-24T16:40:47.773Z,8.67
2018-03-24T16:43:15.284Z,9.27
2018-03-24T16:45:42.894Z,9.10
2018-03-24T16:48:11.332Z,7.13
2018-03-24T16:50:38.868Z,4.63
2018-03-24T16:53:06.475Z,9.33
2018-03-24T16:55:33.982Z,12.80
2018-03-24T16:58:01.555Z,9.17
2018-03-24T17:00:29.057Z,10.57
2018-03-24T17:02:56.549Z,7.63
2018-03-24T17:05:24.060Z,7.47
2018-03-24T17:07:51.616Z,10.13
2018-03-24T17:10:19.225Z,9.50
2018-03-24T17:12:46.902Z,19.93
2018-03-24T17:15:14.561Z,7.57
2018-03-24T17:17:42.235Z,9.37
2018-03-24T17:20:09.900Z,7.47
2018-03-24T17:22:37.578Z,7.73
2018-03-24T17:25:05.295Z,6.43
2018-03-24T17:27:33.124Z,5.63
2018-03-24T17:30:00.943Z,20.83
2018-03-24T17:32:28.796Z,8.60
2018-03-24T17:34:56.644Z,9.53
2018-03-24T17:37:24.472Z,9.57
2018-03-24T17:39:52.342Z,8.20
2018-03-24T17:42:20.204Z,8.67
2018-03-24T17:44:48.075Z,9.60
2018-03-24T17:47:16.004Z,6.43
2018-03-24T17:49:43.839Z,6.43
2018-03-24T17:52:11.668Z,8.13
2018-03-24T17:54:39.670Z,6.30
2018-03-24T17:57:07.568Z,7.93
2018-03-24T17:59:35.414Z,9.57
2018-03-24T18:02:03.418Z,8.00
2018-03-24T18:04:31.303Z,6.20
2018-03-24T18:06:59.161Z,5.73
2018-03-24T18:09:26.997Z,7.83
2018-03-24T18:11:55.189Z,8.87
2018-03-24T18:14:23.045Z,12.50
2018-03-24T18:16:50.933Z,9.53
2018-03-24T18:19:18.778Z,9.03
2018-03-24T18:21:46.646Z,13.90
2018-03-24T18:24:14.484Z,11.93
2018-03-24T18:26:42.307Z,7.30
2018-03-24T18:29:10.119Z,10.07
2018-03-24T18:31:37.923Z,13.47
2018-03-24T18:34:05.800Z,8.80
2018-03-24T18:36:33.631Z,10.43
2018-03-24T18:39:01.467Z,11.97
2018-03-24T18:41:29.360Z,10.93
2018-03-24T18:43:57.202Z,10.60
2018-03-24T18:46:25.082Z,11.47
2018-03-24T18:48:53.016Z,8.97
2018-03-24T18:51:20.814Z,9.03
2018-03-24T18:53:48.632Z,9.03
2018-03-24T18:56:16.443Z,12.77
2018-03-24T18:58:44.279Z,18.33
2018-03-24T19:01:12.056Z,16.03
2018-03-24T19:03:39.853Z,11.00
2018-03-24T19:06:07.670Z,13.43
2018-03-24T19:08:35.372Z,8.97
2018-03-24T19:11:03.061Z,14.67
2018-03-24T19:13:30.817Z,12.43
2018-03-24T19:15:58.557Z,15.43
2018-03-24T19:18:26.292Z,13.57
2018-03-24T19:20:53.998Z,13.07
2018-03-24T19:23:21.787Z,13.40
2018-03-24T19:25:49.590Z,14.70
2018-03-24T19:28:17.359Z,13.90
2018-03-24T19:30:45.131Z,15.30
2018-03-24T19:33:12.920Z,17.03
2018-03-24T19:35:40.751Z,12.67
2018-03-24T19:38:09.968Z,9.73
2018-03-24T19:40:37.819Z,12.27
2018-03-24T19:43:05.640Z,9.47
2018-03-24T19:45:33.470Z,10.93
2018-03-24T19:48:01.318Z,13.20
2018-03-24T19:50:29.214Z,10.70
2018-03-24T19:52:57.031Z,7.10
2018-03-24T19:55:24.849Z,10.30
2018-03-24T19:57:52.712Z,7.90
2018-03-24T20:00:20.536Z,13.67
2018-03-24T20:02:48.373Z,9.23
2018-03-24T20:05:16.207Z,10.23
2018-03-24T20:07:44.068Z,15.73
2018-03-24T20:10:11.935Z,8.03
2018-03-24T20:12:39.773Z,10.93
2018-03-24T20:15:07.619Z,11.80
2018-03-24T20:17:35.462Z,16.77
2018-03-24T20:20:03.378Z,17.77
2018-03-24T20:22:31.247Z,18.57
2018-03-24T20:24:59.120Z,17.93
2018-03-24T20:27:26.959Z,28.10
2018-03-24T20:29:54.788Z,35.17
2018-03-24T20:32:22.668Z,27.10
2018-03-24T20:34:50.565Z,15.57
2018-03-24T20:37:18.422Z,15.20
2018-03-24T20:39:46.267Z,15.00
2018-03-24T20:42:14.218Z,10.87
2018-03-24T20:44:42.050Z,13.20
2018-03-24T20:47:09.871Z,11.47
2018-03-24T20:49:38.054Z,12.70
2018-03-24T20:52:05.975Z,15.60
2018-03-24T20:54:33.814Z,12.90
2018-03-24T20:57:01.632Z,14.90
2018-03-24T20:59:29.470Z,14.07
2018-03-24T21:01:57.293Z,14.70
2018-03-24T21:04:25.637Z,12.53
2018-03-24T21:06:53.506Z,12.37
2018-03-24T21:09:21.341Z,12.10
2018-03-24T21:11:49.180Z,15.97
2018-03-24T21:14:17.644Z,15.83
2018-03-24T21:16:45.503Z,18.60
2018-03-24T21:19:13.461Z,22.43
2018-03-24T21:21:41.316Z,19.63
2018-03-24T21:24:09.171Z,17.73
2018-03-24T21:26:37.026Z,16.67
2018-03-24T21:29:04.862Z,13.10
2018-03-24T21:31:32.688Z,12.80
2018-03-24T21:34:00.541Z,14.77
2018-03-24T21:36:28.381Z,16.13
2018-03-24T21:38:56.246Z,15.47
2018-03-24T21:41:24.082Z,18.90
2018-03-24T21:43:51.928Z,21.20
2018-03-24T21:46:19.832Z,18.50
2018-03-24T21:48:47.738Z,18.27
2018-03-24T21:51:15.589Z,13.53
2018-03-24T21:53:43.518Z,13.67
2018-03-24T21:56:11.345Z,15.73
2018-03-24T21:58:39.186Z,17.37
2018-03-24T22:01:07.016Z,19.30
2018-03-24T22:03:34.858Z,14.63
2018-03-24T22:06:02.712Z,18.43
2018-03-24T22:08:30.564Z,16.17
2018-03-24T22:10:58.426Z,16.47
2018-03-24T22:13:26.258Z,18.63
2018-03-24T22:15:54.108Z,11.70
2018-03-24T22:18:22.057Z,11.40
2018-03-24T22:20:49.903Z,12.70
2018-03-24T22:23:17.747Z,11.77
2018-03-24T22:25:45.580Z,12.70
2018-03-24T22:28:13.410Z,10.63
2018-03-24T22:30:41.151Z,10.13
2018-03-24T22:33:08.853Z,13.67
2018-03-24T22:35:36.494Z,18.93
2018-03-24T22:38:04.050Z,16.57
2018-03-24T22:40:31.560Z,16.87
2018-03-24T22:42:59.058Z,16.57
2018-03-24T22:45:26.540Z,12.03
2018-03-24T22:47:54.026Z,10.77
2018-03-24T22:50:21.592Z,10.00
2018-03-24T22:52:49.066Z,10.10
2018-03-24T22:55:16.778Z,11.80
2018-03-24T22:57:44.281Z,10.80
2018-03-24T23:00:11.838Z,8.77
2018-03-24T23:02:39.398Z,9.20
2018-03-24T23:05:06.922Z,5.97
2018-03-24T23:07:34.406Z,10.33
2018-03-24T23:10:01.950Z,9.13
2018-03-24T23:12:29.490Z,7.13
2018-03-24T23:14:56.980Z,7.53
2018-03-24T23:17:24.491Z,8.97
2018-03-24T23:19:51.977Z,5.93
2018-03-24T23:22:19.535Z,9.57
2018-03-24T23:24:47.055Z,9.80
2018-03-24T23:27:14.558Z,9.03
2018-03-24T23:29:42.047Z,8.03
2018-03-24T23:32:09.539Z,9.67
2018-03-24T23:34:37.077Z,15.07
2018-03-24T23:37:04.569Z,10.83
2018-03-24T23:39:32.053Z,8.60
2018-03-24T23:41:59.549Z,8.77
2018-03-24T23:44:27.036Z,6.93
2018-03-24T23:46:54.530Z,8.13
2018-03-24T23:49:22.050Z,7.37
2018-03-24T23:51:49.577Z,10.27
2018-03-24T23:54:17.107Z,8.57
2018-03-24T23:56:44.663Z,7.07
2018-03-24T23:59:12.156Z,5.80
